sensor_id;sensor_type;location;lat;lon;timestamp;temperature;humidity
54082;DHT22;39986;50.770;0.266;2023-07-24T00:00:18;16.90;99.90
54082;DHT22;39986;50.770;0.266;2023-07-24T00:02:44;16.80;99.90
54082;DHT22;39986;50.770;0.266;2023-07-24T00:05:09;16.80;99.90
54082;DHT22;39986;50.770;0.266;2023-07-24T00:07:35;16.80;99.90
54082;DHT22;39986;50.770;0.266;2023-07-24T00:10:01;16.80;99.90
54082;DHT22;39986;50.770;0.266;2023-07-24T00:12:27;16.80;99.90
54082;DHT22;39986;50.770;0.266;2023-07-24T00:14:52;16.80;99.90
54082;DHT22;39986;50.770;0.266;2023-07-24T00:17:18;16.70;99.90
54082;DHT22;39986;50.770;0.266;2023-07-24T00:19:43;16.70;99.90
54082;DHT22;39986;50.770;0.266;2023-07-24T00:22:09;16.70;99.90
54082;DHT22;39986;50.770;0.266;2023-07-24T00:24:34;16.70;99.90
54082;DHT22;39986;50.770;0.266;2023-07-24T00:27:00;16.80;99.90
54082;DHT22;39986;50.770;0.266;2023-07-24T00:29:25;16.80;99.90
54082;DHT22;39986;50.770;0.266;2023-07-24T00:31:51;16.90;99.90
54082;DHT22;39986;50.770;0.266;2023-07-24T00:34:16;16.90;99.90
54082;DHT22;39986;50.770;0.266;2023-07-24T00:36:42;17.00;99.90
54082;DHT22;39986;50.770;0.266;2023-07-24T00:39:07;16.80;99.90
54082;DHT22;39986;50.770;0.266;2023-07-24T00:41:33;16.80;99.90
54082;DHT22;39986;50.770;0.266;2023-07-24T00:43:59;16.80;99.90
54082;DHT22;39986;50.770;0.266;2023-07-24T00:46:24;16.80;99.90
54082;DHT22;39986;50.770;0.266;2023-07-24T00:48:50;16.80;99.90
54082;DHT22;39986;50.770;0.266;2023-07-24T00:51:16;16.90;99.90
54082;DHT22;39986;50.770;0.266;2023-07-24T00:53:42;17.00;99.90
54082;DHT22;39986;50.770;0.266;2023-07-24T00:56:08;16.90;99.90
54082;DHT22;39986;50.770;0.266;2023-07-24T00:58:34;16.90;99.90
54082;DHT22;39986;50.770;0.266;2023-07-24T01:01:00;17.00;99.90
54082;DHT22;39986;50.770;0.266;2023-07-24T01:03:27;16.90;99.90
54082;DHT22;39986;50.770;0.266;2023-07-24T01:05:56;16.90;99.90
54082;DHT22;39986;50.770;0.266;2023-07-24T01:08:22;16.90;99.90
54082;DHT22;39986;50.770;0.266;2023-07-24T01:10:48;16.90;99.90
54082;DHT22;39986;50.770;0.266;2023-07-24T01:13:19;17.00;99.90
54082;DHT22;39986;50.770;0.266;2023-07-24T01:15:54;17.00;99.90
54082;DHT22;39986;50.770;0.266;2023-07-24T01:18:20;17.10;99.90
54082;DHT22;39986;50.770;0.266;2023-07-24T01:20:48;17.10;99.90
54082;DHT22;39986;50.770;0.266;2023-07-24T01:26:00;17.10;99.90
54082;DHT22;39986;50.770;0.266;2023-07-24T01:28:27;17.10;99.90
54082;DHT22;39986;50.770;0.266;2023-07-24T01:30:53;17.10;99.90
54082;DHT22;39986;50.770;0.266;2023-07-24T01:33:19;17.20;99.90
54082;DHT22;39986;50.770;0.266;2023-07-24T01:35:47;17.10;99.90
54082;DHT22;39986;50.770;0.266;2023-07-24T01:38:15;17.00;99.90
54082;DHT22;39986;50.770;0.266;2023-07-24T01:40:42;17.00;99.90
54082;DHT22;39986;50.770;0.266;2023-07-24T01:43:08;17.00;99.90
54082;DHT22;39986;50.770;0.266;2023-07-24T01:45:34;17.00;99.90
54082;DHT22;39986;50.770;0.266;2023-07-24T01:47:59;17.00;99.90
54082;DHT22;39986;50.770;0.266;2023-07-24T01:50:25;16.90;99.90
54082;DHT22;39986;50.770;0.266;2023-07-24T01:52:50;17.00;99.90
54082;DHT22;39986;50.770;0.266;2023-07-24T01:55:16;16.90;99.90
54082;DHT22;39986;50.770;0.266;2023-07-24T01:57:41;16.90;99.90
54082;DHT22;39986;50.770;0.266;2023-07-24T02:00:07;17.00;99.90
54082;DHT22;39986;50.770;0.266;2023-07-24T02:02:33;16.90;99.90
54082;DHT22;39986;50.770;0.266;2023-07-24T02:04:58;17.00;99.90
54082;DHT22;39986;50.770;0.266;2023-07-24T02:07:24;16.90;99.90
54082;DHT22;39986;50.770;0.266;2023-07-24T02:09:49;16.80;99.90
54082;DHT22;39986;50.770;0.266;2023-07-24T02:12:15;16.80;99.90
54082;DHT22;39986;50.770;0.266;2023-07-24T02:14:41;16.70;99.90
54082;DHT22;39986;50.770;0.266;2023-07-24T02:17:06;16.80;99.90
54082;DHT22;39986;50.770;0.266;2023-07-24T02:19:32;16.70;99.90
54082;DHT22;39986;50.770;0.266;2023-07-24T02:21:57;16.70;99.90
54082;DHT22;39986;50.770;0.266;2023-07-24T02:24:23;16.80;99.90
54082;DHT22;39986;50.770;0.266;2023-07-24T02:26:49;16.70;99.90
54082;DHT22;39986;50.770;0.266;2023-07-24T02:29:14;16.70;99.90
54082;DHT22;39986;50.770;0.266;2023-07-24T02:31:40;16.70;99.90
54082;DHT22;39986;50.770;0.266;2023-07-24T02:34:05;16.60;99.90
54082;DHT22;39986;50.770;0.266;2023-07-24T02:36:31;16.60;99.90
54082;DHT22;39986;50.770;0.266;2023-07-24T02:38:56;16.60;99.90
54082;DHT22;39986;50.770;0.266;2023-07-24T02:41:22;16.50;99.90
54082;DHT22;39986;50.770;0.266;2023-07-24T02:43:47;16.40;99.90
54082;DHT22;39986;50.770;0.266;2023-07-24T02:46:13;16.40;99.90
54082;DHT22;39986;50.770;0.266;2023-07-24T02:48:38;16.40;99.90
54082;DHT22;39986;50.770;0.266;2023-07-24T02:51:04;16.30;99.90
54082;DHT22;39986;50.770;0.266;2023-07-24T02:53:29;16.30;99.90
54082;DHT22;39986;50.770;0.266;2023-07-24T02:55:55;16.30;99.90
54082;DHT22;39986;50.770;0.266;2023-07-24T02:58:20;16.20;99.90
54082;DHT22;39986;50.770;0.266;2023-07-24T03:00:46;16.20;99.90
54082;DHT22;39986;50.770;0.266;2023-07-24T03:03:11;16.20;99.90
54082;DHT22;39986;50.770;0.266;2023-07-24T03:05:37;16.20;99.90
54082;DHT22;39986;50.770;0.266;2023-07-24T03:08:03;16.20;99.90
54082;DHT22;39986;50.770;0.266;2023-07-24T03:10:28;16.10;99.90
54082;DHT22;39986;50.770;0.266;2023-07-24T03:12:54;16.10;99.90
54082;DHT22;39986;50.770;0.266;2023-07-24T03:15:19;16.10;99.90
54082;DHT22;39986;50.770;0.266;2023-07-24T03:17:45;16.20;99.90
54082;DHT22;39986;50.770;0.266;2023-07-24T03:20:13;16.20;99.90
54082;DHT22;39986;50.770;0.266;2023-07-24T03:22:40;16.20;99.90
54082;DHT22;39986;50.770;0.266;2023-07-24T03:25:05;16.20;99.90
54082;DHT22;39986;50.770;0.266;2023-07-24T03:27:31;16.20;99.90
54082;DHT22;39986;50.770;0.266;2023-07-24T03:29:56;16.10;99.90
54082;DHT22;39986;50.770;0.266;2023-07-24T03:32:22;16.10;99.90
54082;DHT22;39986;50.770;0.266;2023-07-24T03:34:47;16.20;99.90
54082;DHT22;39986;50.770;0.266;2023-07-24T03:37:13;16.20;99.90
54082;DHT22;39986;50.770;0.266;2023-07-24T03:39:38;16.10;99.90
54082;DHT22;39986;50.770;0.266;2023-07-24T03:42:04;16.10;99.90
54082;DHT22;39986;50.770;0.266;2023-07-24T03:44:29;16.20;99.90
54082;DHT22;39986;50.770;0.266;2023-07-24T03:46:55;16.10;99.90
54082;DHT22;39986;50.770;0.266;2023-07-24T03:49:21;16.20;99.90
54082;DHT22;39986;50.770;0.266;2023-07-24T03:51:47;16.20;99.90
54082;DHT22;39986;50.770;0.266;2023-07-24T03:54:13;16.10;99.90
54082;DHT22;39986;50.770;0.266;2023-07-24T03:56:39;16.10;99.90
54082;DHT22;39986;50.770;0.266;2023-07-24T03:59:05;16.10;99.90
54082;DHT22;39986;50.770;0.266;2023-07-24T04:01:31;16.00;99.90
54082;DHT22;39986;50.770;0.266;2023-07-24T04:03:56;16.00;99.90
54082;DHT22;39986;50.770;0.266;2023-07-24T04:06:23;16.10;99.90
54082;DHT22;39986;50.770;0.266;2023-07-24T04:08:48;16.10;99.90
54082;DHT22;39986;50.770;0.266;2023-07-24T04:11:14;16.10;99.90
54082;DHT22;39986;50.770;0.266;2023-07-24T04:13:39;16.10;99.90
54082;DHT22;39986;50.770;0.266;2023-07-24T04:16:05;16.10;99.90
54082;DHT22;39986;50.770;0.266;2023-07-24T04:18:31;16.10;99.90
54082;DHT22;39986;50.770;0.266;2023-07-24T04:20:56;16.20;99.90
54082;DHT22;39986;50.770;0.266;2023-07-24T04:23:22;16.30;99.90
54082;DHT22;39986;50.770;0.266;2023-07-24T04:25:49;16.30;99.90
54082;DHT22;39986;50.770;0.266;2023-07-24T04:28:15;16.40;99.90
54082;DHT22;39986;50.770;0.266;2023-07-24T04:30:40;16.40;99.90
54082;DHT22;39986;50.770;0.266;2023-07-24T04:33:06;16.50;99.90
54082;DHT22;39986;50.770;0.266;2023-07-24T04:35:31;16.50;99.90
54082;DHT22;39986;50.770;0.266;2023-07-24T04:37:57;16.50;99.90
54082;DHT22;39986;50.770;0.266;2023-07-24T04:40:23;16.60;99.90
54082;DHT22;39986;50.770;0.266;2023-07-24T04:42:49;16.60;99.90
54082;DHT22;39986;50.770;0.266;2023-07-24T04:45:14;16.80;99.90
54082;DHT22;39986;50.770;0.266;2023-07-24T04:47:40;16.80;99.90
54082;DHT22;39986;50.770;0.266;2023-07-24T04:50:05;16.90;99.90
54082;DHT22;39986;50.770;0.266;2023-07-24T04:52:31;17.00;99.90
54082;DHT22;39986;50.770;0.266;2023-07-24T04:54:57;17.00;99.90
54082;DHT22;39986;50.770;0.266;2023-07-24T04:57:22;17.10;99.90
54082;DHT22;39986;50.770;0.266;2023-07-24T04:59:48;17.10;99.90
54082;DHT22;39986;50.770;0.266;2023-07-24T05:02:13;17.10;99.90
54082;DHT22;39986;50.770;0.266;2023-07-24T05:04:39;17.00;99.90
54082;DHT22;39986;50.770;0.266;2023-07-24T05:07:04;17.20;99.90
54082;DHT22;39986;50.770;0.266;2023-07-24T05:09:30;17.20;99.90
54082;DHT22;39986;50.770;0.266;2023-07-24T05:11:55;17.30;99.90
54082;DHT22;39986;50.770;0.266;2023-07-24T05:14:21;17.40;99.90
54082;DHT22;39986;50.770;0.266;2023-07-24T05:16:46;17.60;99.90
54082;DHT22;39986;50.770;0.266;2023-07-24T05:19:12;17.80;99.90
54082;DHT22;39986;50.770;0.266;2023-07-24T05:21:37;18.20;99.90
54082;DHT22;39986;50.770;0.266;2023-07-24T05:24:03;18.50;99.90
54082;DHT22;39986;50.770;0.266;2023-07-24T05:29:16;18.50;99.90
54082;DHT22;39986;50.770;0.266;2023-07-24T05:31:42;18.40;99.90
54082;DHT22;39986;50.770;0.266;2023-07-24T05:34:08;18.70;99.90
54082;DHT22;39986;50.770;0.266;2023-07-24T05:36:33;18.80;99.90
54082;DHT22;39986;50.770;0.266;2023-07-24T05:38:59;18.70;99.90
54082;DHT22;39986;50.770;0.266;2023-07-24T05:41:24;18.60;99.90
54082;DHT22;39986;50.770;0.266;2023-07-24T05:43:50;18.50;99.90
54082;DHT22;39986;50.770;0.266;2023-07-24T05:46:15;18.40;99.90
54082;DHT22;39986;50.770;0.266;2023-07-24T05:48:41;18.40;99.90
54082;DHT22;39986;50.770;0.266;2023-07-24T05:51:06;18.30;99.90
54082;DHT22;39986;50.770;0.266;2023-07-24T05:53:32;18.20;99.90
54082;DHT22;39986;50.770;0.266;2023-07-24T05:55:58;18.10;99.90
54082;DHT22;39986;50.770;0.266;2023-07-24T05:58:24;18.00;99.90
54082;DHT22;39986;50.770;0.266;2023-07-24T06:00:49;18.00;99.90
54082;DHT22;39986;50.770;0.266;2023-07-24T06:03:15;18.00;99.90
54082;DHT22;39986;50.770;0.266;2023-07-24T06:05:40;17.90;99.90
54082;DHT22;39986;50.770;0.266;2023-07-24T06:08:06;18.00;99.90
54082;DHT22;39986;50.770;0.266;2023-07-24T06:10:34;17.90;99.90
54082;DHT22;39986;50.770;0.266;2023-07-24T06:12:59;17.80;99.90
54082;DHT22;39986;50.770;0.266;2023-07-24T06:15:25;17.80;99.90
54082;DHT22;39986;50.770;0.266;2023-07-24T06:17:50;17.70;99.90
54082;DHT22;39986;50.770;0.266;2023-07-24T06:20:16;17.80;99.90
54082;DHT22;39986;50.770;0.266;2023-07-24T06:22:42;17.80;99.90
54082;DHT22;39986;50.770;0.266;2023-07-24T06:25:07;17.80;99.90
54082;DHT22;39986;50.770;0.266;2023-07-24T06:27:33;17.80;99.90
54082;DHT22;39986;50.770;0.266;2023-07-24T06:29:58;17.80;99.90
54082;DHT22;39986;50.770;0.266;2023-07-24T06:32:24;17.70;99.90
54082;DHT22;39986;50.770;0.266;2023-07-24T06:34:49;17.70;99.90
54082;DHT22;39986;50.770;0.266;2023-07-24T06:37:15;17.70;99.90
54082;DHT22;39986;50.770;0.266;2023-07-24T06:39:40;17.70;99.90
54082;DHT22;39986;50.770;0.266;2023-07-24T06:42:06;17.80;99.90
54082;DHT22;39986;50.770;0.266;2023-07-24T06:44:31;17.80;99.90
54082;DHT22;39986;50.770;0.266;2023-07-24T06:46:57;17.80;99.90
54082;DHT22;39986;50.770;0.266;2023-07-24T06:49:22;17.80;99.90
54082;DHT22;39986;50.770;0.266;2023-07-24T06:51:48;17.90;99.90
54082;DHT22;39986;50.770;0.266;2023-07-24T06:54:13;17.80;99.90
54082;DHT22;39986;50.770;0.266;2023-07-24T06:56:39;17.90;99.90
54082;DHT22;39986;50.770;0.266;2023-07-24T06:59:04;18.00;99.90
54082;DHT22;39986;50.770;0.266;2023-07-24T07:01:30;18.00;99.90
54082;DHT22;39986;50.770;0.266;2023-07-24T07:03:56;18.10;99.90
54082;DHT22;39986;50.770;0.266;2023-07-24T07:06:21;18.10;99.90
54082;DHT22;39986;50.770;0.266;2023-07-24T07:08:47;18.10;99.90
54082;DHT22;39986;50.770;0.266;2023-07-24T07:11:12;18.30;99.90
54082;DHT22;39986;50.770;0.266;2023-07-24T07:13:38;18.30;99.90
54082;DHT22;39986;50.770;0.266;2023-07-24T07:16:03;18.40;99.90
54082;DHT22;39986;50.770;0.266;2023-07-24T07:18:29;18.40;99.90
54082;DHT22;39986;50.770;0.266;2023-07-24T07:20:54;18.40;99.90
54082;DHT22;39986;50.770;0.266;2023-07-24T07:23:20;18.40;99.90
54082;DHT22;39986;50.770;0.266;2023-07-24T07:25:45;18.40;99.90
54082;DHT22;39986;50.770;0.266;2023-07-24T07:28:15;18.50;99.90
54082;DHT22;39986;50.770;0.266;2023-07-24T07:30:41;18.60;99.90
54082;DHT22;39986;50.770;0.266;2023-07-24T07:33:07;18.60;99.90
54082;DHT22;39986;50.770;0.266;2023-07-24T07:35:32;18.60;99.90
54082;DHT22;39986;50.770;0.266;2023-07-24T07:37:58;18.80;99.90
54082;DHT22;39986;50.770;0.266;2023-07-24T07:40:25;18.80;99.90
54082;DHT22;39986;50.770;0.266;2023-07-24T07:42:52;18.90;99.90
54082;DHT22;39986;50.770;0.266;2023-07-24T07:45:18;18.80;99.90
54082;DHT22;39986;50.770;0.266;2023-07-24T07:47:44;18.80;99.90
54082;DHT22;39986;50.770;0.266;2023-07-24T07:50:09;18.70;99.90
54082;DHT22;39986;50.770;0.266;2023-07-24T07:52:35;18.50;99.90
54082;DHT22;39986;50.770;0.266;2023-07-24T07:55:01;18.50;99.90
54082;DHT22;39986;50.770;0.266;2023-07-24T07:57:26;18.30;99.90
54082;DHT22;39986;50.770;0.266;2023-07-24T07:59:52;18.10;99.90
54082;DHT22;39986;50.770;0.266;2023-07-24T08:02:17;17.90;99.90
54082;DHT22;39986;50.770;0.266;2023-07-24T08:04:43;17.80;99.90
54082;DHT22;39986;50.770;0.266;2023-07-24T08:07:08;17.80;99.90
54082;DHT22;39986;50.770;0.266;2023-07-24T08:09:34;17.80;99.90
54082;DHT22;39986;50.770;0.266;2023-07-24T08:12:01;17.80;99.90
54082;DHT22;39986;50.770;0.266;2023-07-24T08:14:26;17.70;99.90
54082;DHT22;39986;50.770;0.266;2023-07-24T08:16:52;17.70;99.90
54082;DHT22;39986;50.770;0.266;2023-07-24T08:19:18;17.70;99.90
54082;DHT22;39986;50.770;0.266;2023-07-24T08:21:44;17.70;99.90
54082;DHT22;39986;50.770;0.266;2023-07-24T08:24:10;17.70;99.90
54082;DHT22;39986;50.770;0.266;2023-07-24T08:26:35;17.70;99.90
54082;DHT22;39986;50.770;0.266;2023-07-24T08:29:01;17.80;99.90
54082;DHT22;39986;50.770;0.266;2023-07-24T08:31:26;17.80;99.90
54082;DHT22;39986;50.770;0.266;2023-07-24T08:33:52;17.90;99.90
54082;DHT22;39986;50.770;0.266;2023-07-24T08:36:18;18.00;99.90
54082;DHT22;39986;50.770;0.266;2023-07-24T08:38:43;18.20;99.90
54082;DHT22;39986;50.770;0.266;2023-07-24T08:41:10;18.20;99.90
54082;DHT22;39986;50.770;0.266;2023-07-24T08:43:36;18.10;99.90
54082;DHT22;39986;50.770;0.266;2023-07-24T08:46:03;17.90;99.90
54082;DHT22;39986;50.770;0.266;2023-07-24T08:48:29;17.80;99.90
54082;DHT22;39986;50.770;0.266;2023-07-24T08:50:55;17.70;99.90
54082;DHT22;39986;50.770;0.266;2023-07-24T08:53:21;17.60;99.90
54082;DHT22;39986;50.770;0.266;2023-07-24T08:55:47;17.60;99.90
54082;DHT22;39986;50.770;0.266;2023-07-24T08:58:14;17.60;99.90
54082;DHT22;39986;50.770;0.266;2023-07-24T09:00:39;17.60;99.90
54082;DHT22;39986;50.770;0.266;2023-07-24T09:03:05;17.50;99.90
54082;DHT22;39986;50.770;0.266;2023-07-24T09:05:31;17.40;99.90
54082;DHT22;39986;50.770;0.266;2023-07-24T09:07:56;17.40;99.90
54082;DHT22;39986;50.770;0.266;2023-07-24T09:10:25;17.50;99.90
54082;DHT22;39986;50.770;0.266;2023-07-24T09:12:51;17.70;99.90
54082;DHT22;39986;50.770;0.266;2023-07-24T09:15:16;17.90;99.90
54082;DHT22;39986;50.770;0.266;2023-07-24T09:17:51;18.10;99.90
54082;DHT22;39986;50.770;0.266;2023-07-24T09:20:17;18.30;99.90
54082;DHT22;39986;50.770;0.266;2023-07-24T09:22:49;18.60;99.90
54082;DHT22;39986;50.770;0.266;2023-07-24T09:25:15;19.00;99.90
54082;DHT22;39986;50.770;0.266;2023-07-24T09:27:40;19.30;99.90
54082;DHT22;39986;50.770;0.266;2023-07-24T09:30:15;19.70;99.90
54082;DHT22;39986;50.770;0.266;2023-07-24T09:32:41;20.00;99.90
54082;DHT22;39986;50.770;0.266;2023-07-24T09:35:16;20.30;99.90
54082;DHT22;39986;50.770;0.266;2023-07-24T09:37:42;20.30;99.90
54082;DHT22;39986;50.770;0.266;2023-07-24T09:40:08;20.40;99.90
54082;DHT22;39986;50.770;0.266;2023-07-24T09:42:34;20.50;99.90
54082;DHT22;39986;50.770;0.266;2023-07-24T09:45:01;20.60;99.90
54082;DHT22;39986;50.770;0.266;2023-07-24T09:47:27;20.50;99.90
54082;DHT22;39986;50.770;0.266;2023-07-24T09:49:53;20.30;99.90
54082;DHT22;39986;50.770;0.266;2023-07-24T09:52:19;20.30;99.90
54082;DHT22;39986;50.770;0.266;2023-07-24T09:54:51;20.50;99.90
54082;DHT22;39986;50.770;0.266;2023-07-24T09:57:17;20.90;99.90
54082;DHT22;39986;50.770;0.266;2023-07-24T09:59:42;21.30;99.90
54082;DHT22;39986;50.770;0.266;2023-07-24T10:02:09;21.50;99.90
54082;DHT22;39986;50.770;0.266;2023-07-24T10:04:36;21.50;99.90
54082;DHT22;39986;50.770;0.266;2023-07-24T10:07:03;21.80;99.90
54082;DHT22;39986;50.770;0.266;2023-07-24T10:09:29;22.00;99.90
54082;DHT22;39986;50.770;0.266;2023-07-24T10:11:55;21.90;99.90
54082;DHT22;39986;50.770;0.266;2023-07-24T10:14:21;21.80;99.90
54082;DHT22;39986;50.770;0.266;2023-07-24T10:16:47;21.70;99.90
54082;DHT22;39986;50.770;0.266;2023-07-24T10:19:14;21.50;99.90
54082;DHT22;39986;50.770;0.266;2023-07-24T10:21:45;21.60;99.90
54082;DHT22;39986;50.770;0.266;2023-07-24T10:24:11;21.50;99.90
54082;DHT22;39986;50.770;0.266;2023-07-24T10:26:37;21.40;99.90
54082;DHT22;39986;50.770;0.266;2023-07-24T10:29:02;21.40;99.90
54082;DHT22;39986;50.770;0.266;2023-07-24T10:31:28;21.30;99.90
54082;DHT22;39986;50.770;0.266;2023-07-24T10:33:55;21.30;99.90
54082;DHT22;39986;50.770;0.266;2023-07-24T10:36:22;21.20;99.90
54082;DHT22;39986;50.770;0.266;2023-07-24T10:38:54;21.20;99.90
54082;DHT22;39986;50.770;0.266;2023-07-24T10:41:20;21.30;99.90
54082;DHT22;39986;50.770;0.266;2023-07-24T10:43:47;21.40;99.90
54082;DHT22;39986;50.770;0.266;2023-07-24T10:46:13;21.80;99.90
54082;DHT22;39986;50.770;0.266;2023-07-24T10:48:42;22.10;99.90
54082;DHT22;39986;50.770;0.266;2023-07-24T10:51:08;22.50;99.90
54082;DHT22;39986;50.770;0.266;2023-07-24T10:53:35;22.60;99.90
54082;DHT22;39986;50.770;0.266;2023-07-24T10:56:01;22.70;99.90
54082;DHT22;39986;50.770;0.266;2023-07-24T10:58:26;22.60;99.90
54082;DHT22;39986;50.770;0.266;2023-07-24T11:00:52;22.50;99.90
54082;DHT22;39986;50.770;0.266;2023-07-24T11:03:17;22.30;99.90
54082;DHT22;39986;50.770;0.266;2023-07-24T11:05:46;22.50;99.90
54082;DHT22;39986;50.770;0.266;2023-07-24T11:08:12;23.20;99.90
54082;DHT22;39986;50.770;0.266;2023-07-24T11:10:52;24.20;99.90
54082;DHT22;39986;50.770;0.266;2023-07-24T11:13:19;24.80;99.90
54082;DHT22;39986;50.770;0.266;2023-07-24T11:15:45;25.30;99.90
54082;DHT22;39986;50.770;0.266;2023-07-24T11:18:11;25.70;99.90
54082;DHT22;39986;50.770;0.266;2023-07-24T11:20:47;25.80;99.90
54082;DHT22;39986;50.770;0.266;2023-07-24T11:23:13;26.40;99.90
54082;DHT22;39986;50.770;0.266;2023-07-24T11:25:38;28.70;99.90
54082;DHT22;39986;50.770;0.266;2023-07-24T11:28:05;31.00;99.90
54082;DHT22;39986;50.770;0.266;2023-07-24T11:30:31;33.30;99.90
54082;DHT22;39986;50.770;0.266;2023-07-24T11:32:57;35.10;99.90
54082;DHT22;39986;50.770;0.266;2023-07-24T11:35:24;36.30;98.00
54082;DHT22;39986;50.770;0.266;2023-07-24T11:37:50;36.40;95.20
54082;DHT22;39986;50.770;0.266;2023-07-24T11:40:16;36.00;95.90
54082;DHT22;39986;50.770;0.266;2023-07-24T11:42:43;36.40;94.30
54082;DHT22;39986;50.770;0.266;2023-07-24T11:45:08;35.10;95.40
54082;DHT22;39986;50.770;0.266;2023-07-24T11:47:44;34.60;96.50
54082;DHT22;39986;50.770;0.266;2023-07-24T11:50:10;34.20;96.10
54082;DHT22;39986;50.770;0.266;2023-07-24T11:52:42;32.60;98.70
54082;DHT22;39986;50.770;0.266;2023-07-24T11:55:11;31.20;99.90
54082;DHT22;39986;50.770;0.266;2023-07-24T11:57:37;30.20;99.90
54082;DHT22;39986;50.770;0.266;2023-07-24T12:00:04;29.00;99.90
54082;DHT22;39986;50.770;0.266;2023-07-24T12:02:32;30.10;99.90
54082;DHT22;39986;50.770;0.266;2023-07-24T12:04:58;30.60;99.90
54082;DHT22;39986;50.770;0.266;2023-07-24T12:07:28;29.60;99.90
54082;DHT22;39986;50.770;0.266;2023-07-24T12:09:54;29.20;99.90
54082;DHT22;39986;50.770;0.266;2023-07-24T12:12:19;29.20;99.90
54082;DHT22;39986;50.770;0.266;2023-07-24T12:14:45;28.50;99.90
54082;DHT22;39986;50.770;0.266;2023-07-24T12:17:10;27.80;99.90
54082;DHT22;39986;50.770;0.266;2023-07-24T12:19:39;26.80;99.90
54082;DHT22;39986;50.770;0.266;2023-07-24T12:22:05;26.60;99.90
54082;DHT22;39986;50.770;0.266;2023-07-24T12:24:30;26.60;99.90
54082;DHT22;39986;50.770;0.266;2023-07-24T12:26:56;26.90;99.90
54082;DHT22;39986;50.770;0.266;2023-07-24T12:29:21;28.20;99.90
54082;DHT22;39986;50.770;0.266;2023-07-24T12:31:47;29.50;99.90
54082;DHT22;39986;50.770;0.266;2023-07-24T12:34:12;30.70;99.90
54082;DHT22;39986;50.770;0.266;2023-07-24T12:36:38;30.40;99.90
54082;DHT22;39986;50.770;0.266;2023-07-24T12:39:03;29.50;99.90
54082;DHT22;39986;50.770;0.266;2023-07-24T12:41:29;28.50;99.90
54082;DHT22;39986;50.770;0.266;2023-07-24T12:43:54;27.10;99.90
54082;DHT22;39986;50.770;0.266;2023-07-24T12:46:20;26.00;99.90
54082;DHT22;39986;50.770;0.266;2023-07-24T12:48:45;26.00;99.90
54082;DHT22;39986;50.770;0.266;2023-07-24T12:51:11;28.00;99.90
54082;DHT22;39986;50.770;0.266;2023-07-24T12:53:36;29.10;99.90
54082;DHT22;39986;50.770;0.266;2023-07-24T12:56:02;28.40;99.90
54082;DHT22;39986;50.770;0.266;2023-07-24T12:58:27;29.40;99.90
54082;DHT22;39986;50.770;0.266;2023-07-24T13:00:53;31.70;99.90
54082;DHT22;39986;50.770;0.266;2023-07-24T13:03:19;31.90;99.90
54082;DHT22;39986;50.770;0.266;2023-07-24T13:05:44;31.50;99.90
54082;DHT22;39986;50.770;0.266;2023-07-24T13:08:10;30.90;99.90
54082;DHT22;39986;50.770;0.266;2023-07-24T13:10:36;30.50;99.90
54082;DHT22;39986;50.770;0.266;2023-07-24T13:13:01;31.20;99.90
54082;DHT22;39986;50.770;0.266;2023-07-24T13:15:27;31.40;99.90
54082;DHT22;39986;50.770;0.266;2023-07-24T13:17:54;30.80;99.90
54082;DHT22;39986;50.770;0.266;2023-07-24T13:20:20;29.60;99.90
54082;DHT22;39986;50.770;0.266;2023-07-24T13:22:45;28.30;99.90
54082;DHT22;39986;50.770;0.266;2023-07-24T13:25:12;27.10;99.90
54082;DHT22;39986;50.770;0.266;2023-07-24T13:27:38;26.20;99.90
54082;DHT22;39986;50.770;0.266;2023-07-24T13:30:03;25.50;99.90
54082;DHT22;39986;50.770;0.266;2023-07-24T13:32:29;25.00;99.90
54082;DHT22;39986;50.770;0.266;2023-07-24T13:34:55;24.60;99.90
54082;DHT22;39986;50.770;0.266;2023-07-24T13:37:22;24.20;99.90
54082;DHT22;39986;50.770;0.266;2023-07-24T13:39:50;23.80;99.90
54082;DHT22;39986;50.770;0.266;2023-07-24T13:42:16;23.50;99.90
54082;DHT22;39986;50.770;0.266;2023-07-24T13:44:41;23.10;99.90
54082;DHT22;39986;50.770;0.266;2023-07-24T13:47:07;22.70;99.90
54082;DHT22;39986;50.770;0.266;2023-07-24T13:49:32;22.40;99.90
54082;DHT22;39986;50.770;0.266;2023-07-24T13:51:58;22.20;99.90
54082;DHT22;39986;50.770;0.266;2023-07-24T13:54:24;22.00;99.90
54082;DHT22;39986;50.770;0.266;2023-07-24T13:56:49;21.80;99.90
54082;DHT22;39986;50.770;0.266;2023-07-24T13:59:15;21.50;99.90
54082;DHT22;39986;50.770;0.266;2023-07-24T14:01:40;21.20;99.90
54082;DHT22;39986;50.770;0.266;2023-07-24T14:04:06;21.20;99.90
54082;DHT22;39986;50.770;0.266;2023-07-24T14:06:31;21.20;99.90
54082;DHT22;39986;50.770;0.266;2023-07-24T14:08:57;21.30;99.90
54082;DHT22;39986;50.770;0.266;2023-07-24T14:11:22;21.40;99.90
54082;DHT22;39986;50.770;0.266;2023-07-24T14:13:50;21.60;99.90
54082;DHT22;39986;50.770;0.266;2023-07-24T14:16:15;21.80;99.90
54082;DHT22;39986;50.770;0.266;2023-07-24T14:18:41;22.30;99.90
54082;DHT22;39986;50.770;0.266;2023-07-24T14:21:06;22.70;99.90
54082;DHT22;39986;50.770;0.266;2023-07-24T14:23:32;23.40;99.90
54082;DHT22;39986;50.770;0.266;2023-07-24T14:25:57;24.40;99.90
54082;DHT22;39986;50.770;0.266;2023-07-24T14:28:23;25.20;99.90
54082;DHT22;39986;50.770;0.266;2023-07-24T14:30:48;25.70;99.90
54082;DHT22;39986;50.770;0.266;2023-07-24T14:33:14;26.00;99.90
54082;DHT22;39986;50.770;0.266;2023-07-24T14:35:39;26.60;99.90
54082;DHT22;39986;50.770;0.266;2023-07-24T14:38:05;27.60;99.90
54082;DHT22;39986;50.770;0.266;2023-07-24T14:40:30;28.30;99.90
54082;DHT22;39986;50.770;0.266;2023-07-24T14:42:56;28.40;99.90
54082;DHT22;39986;50.770;0.266;2023-07-24T14:45:21;27.70;99.90
54082;DHT22;39986;50.770;0.266;2023-07-24T14:47:47;26.90;99.90
54082;DHT22;39986;50.770;0.266;2023-07-24T14:50:14;26.00;99.90
54082;DHT22;39986;50.770;0.266;2023-07-24T14:52:39;25.10;99.90
54082;DHT22;39986;50.770;0.266;2023-07-24T14:55:06;24.50;99.90
54082;DHT22;39986;50.770;0.266;2023-07-24T14:57:31;24.00;99.90
54082;DHT22;39986;50.770;0.266;2023-07-24T14:59:57;23.50;99.90
54082;DHT22;39986;50.770;0.266;2023-07-24T15:02:23;23.10;99.90
54082;DHT22;39986;50.770;0.266;2023-07-24T15:04:48;22.80;99.90
54082;DHT22;39986;50.770;0.266;2023-07-24T15:07:14;22.60;99.90
54082;DHT22;39986;50.770;0.266;2023-07-24T15:09:39;22.50;99.90
54082;DHT22;39986;50.770;0.266;2023-07-24T15:12:05;22.30;99.90
54082;DHT22;39986;50.770;0.266;2023-07-24T15:14:31;22.00;99.90
54082;DHT22;39986;50.770;0.266;2023-07-24T15:16:56;21.70;99.90
54082;DHT22;39986;50.770;0.266;2023-07-24T15:19:22;21.40;99.90
54082;DHT22;39986;50.770;0.266;2023-07-24T15:21:47;21.10;99.90
54082;DHT22;39986;50.770;0.266;2023-07-24T15:24:13;20.80;99.90
54082;DHT22;39986;50.770;0.266;2023-07-24T15:26:43;20.70;99.90